Time;durP1;ratioP1;P1;durP2;ratioP2;P2;SDS_P1;SDS_P2;PMS_P1;PMS_P2;Temp;Humidity;BMP_temperature;BMP_pressure;BME280_temperature;BME280_humidity;BME280_pressure;Samples;Min_cycle;Max_cycle;Signal;HPM_P1;HPM_P2
2022/07/07 00:02:24;;;;;;;8.25;3.95;;;18.80;66.80;;;;;;9181373;19;20474;-68
2022/07/07 00:05:29;;;;;;;8.07;3.70;;;18.70;66.70;;;;;;9176929;19;20044;-68
2022/07/07 00:08:35;;;;;;;13.18;4.10;;;18.80;66.80;;;;;;9179467;19;20055;-68
2022/07/07 00:11:40;;;;;;;9.05;4.07;;;18.70;66.90;;;;;;9179091;19;20006;-66
2022/07/07 00:14:48;;;;;;;9.15;4.80;;;18.70;67.00;;;;;;9177584;19;20034;-67
2022/07/07 00:17:53;;;;;;;8.95;4.15;;;18.80;67.10;;;;;;9177007;19;20019;-68
2022/07/07 00:20:58;;;;;;;9.13;4.22;;;18.70;67.10;;;;;;9179232;19;20029;-67
2022/07/07 00:24:03;;;;;;;8.05;3.88;;;18.70;67.20;;;;;;9179345;19;20022;-67
2022/07/07 00:27:08;;;;;;;7.85;4.68;;;18.70;67.30;;;;;;9178513;19;20019;-67
2022/07/07 00:30:16;;;;;;;9.05;4.70;;;18.70;67.40;;;;;;9179652;19;20022;-66
2022/07/07 00:33:21;;;;;;;8.98;5.00;;;18.70;67.50;;;;;;9179651;19;20007;-66
2022/07/07 00:36:26;;;;;;;9.63;5.13;;;18.70;67.40;;;;;;9180727;19;20014;-67
2022/07/07 00:39:32;;;;;;;10.48;5.13;;;18.70;67.60;;;;;;9189827;19;20029;-67
2022/07/07 00:42:36;;;;;;;8.23;4.47;;;18.70;67.60;;;;;;9188422;19;20023;-67
2022/07/07 00:45:47;;;;;;;11.20;4.95;;;18.70;67.60;;;;;;9189501;19;20022;-66
2022/07/07 00:48:52;;;;;;;12.77;5.00;;;18.70;67.80;;;;;;9187963;19;20011;-66
2022/07/07 00:51:57;;;;;;;7.68;5.40;;;18.70;67.80;;;;;;9187861;19;20363;-66
2022/07/07 00:55:02;;;;;;;8.73;5.22;;;18.70;67.90;;;;;;9185273;19;20384;-66
2022/07/07 00:58:08;;;;;;;10.23;5.15;;;18.70;67.90;;;;;;9190135;19;20025;-67
2022/07/07 01:01:16;;;;;;;11.85;6.30;;;18.70;68.00;;;;;;9185026;19;20360;-66
2022/07/07 01:04:21;;;;;;;9.65;5.68;;;18.70;68.20;;;;;;9185351;19;20023;-66
2022/07/07 01:07:27;;;;;;;8.15;5.18;;;18.70;68.10;;;;;;9188859;19;20048;-66
2022/07/07 01:10:32;;;;;;;8.88;5.60;;;18.70;68.20;;;;;;9188145;19;20025;-66
2022/07/07 01:13:37;;;;;;;10.38;5.80;;;18.70;68.30;;;;;;9188099;19;20011;-66
2022/07/07 01:16:44;;;;;;;12.85;6.22;;;18.70;68.40;;;;;;9182341;19;20019;-67
2022/07/07 01:19:49;;;;;;;10.07;5.75;;;18.70;68.70;;;;;;9186498;19;20018;-66
2022/07/07 01:22:58;;;;;;;13.05;6.35;;;18.70;68.80;;;;;;9187687;19;20025;-67
2022/07/07 01:26:03;;;;;;;11.50;6.07;;;18.70;69.00;;;;;;9185121;19;20023;-66
2022/07/07 01:29:08;;;;;;;10.38;6.07;;;18.70;69.00;;;;;;9184896;19;20014;-66
2022/07/07 01:32:13;;;;;;;11.95;6.05;;;18.80;69.20;;;;;;9186983;19;20045;-66
2022/07/07 01:35:18;;;;;;;8.35;6.15;;;18.70;69.40;;;;;;9184436;19;20018;-68
2022/07/07 01:38:26;;;;;;;11.52;6.47;;;18.70;69.40;;;;;;9185431;19;20014;-66
2022/07/07 01:41:31;;;;;;;13.13;6.43;;;18.70;69.60;;;;;;9184549;19;20345;-66
2022/07/07 01:44:37;;;;;;;11.73;6.68;;;18.80;69.70;;;;;;9186539;19;20022;-66
2022/07/07 01:47:42;;;;;;;14.60;5.97;;;18.80;69.80;;;;;;9183589;19;20022;-68
2022/07/07 01:50:47;;;;;;;11.57;6.20;;;18.80;69.90;;;;;;9185822;19;20021;-67
2022/07/07 01:53:55;;;;;;;18.75;7.03;;;18.80;70.00;;;;;;9185036;19;20112;-67
2022/07/07 01:57:00;;;;;;;11.43;6.43;;;18.80;70.10;;;;;;9183406;19;20011;-67
2022/07/07 02:00:06;;;;;;;10.63;5.60;;;18.80;70.00;;;;;;9184986;19;20501;-67
2022/07/07 02:03:11;;;;;;;9.35;5.53;;;18.70;70.10;;;;;;9184123;19;20023;-68
2022/07/07 02:06:16;;;;;;;10.30;6.03;;;18.70;70.80;;;;;;9185766;19;20014;-66
2022/07/07 02:09:24;;;;;;;14.18;7.03;;;18.70;70.30;;;;;;9184615;19;20025;-69
2022/07/07 02:12:29;;;;;;;8.93;5.40;;;18.70;70.50;;;;;;9185366;19;20015;-67
2022/07/07 02:15:34;;;;;;;12.18;6.10;;;18.70;70.50;;;;;;9182611;19;20017;-67
2022/07/07 02:18:41;;;;;;;8.40;5.75;;;18.70;70.60;;;;;;9179509;19;20557;-68
2022/07/07 02:21:46;;;;;;;9.73;5.45;;;18.70;70.70;;;;;;9185852;19;20010;-67
2022/07/07 02:24:53;;;;;;;12.07;6.90;;;18.70;70.80;;;;;;9184794;19;20020;-67
2022/07/07 02:27:58;;;;;;;11.55;5.93;;;18.70;70.90;;;;;;9183212;19;20010;-67
2022/07/07 02:31:03;;;;;;;13.63;6.10;;;18.70;70.90;;;;;;9184735;19;20018;-66
2022/07/07 02:34:09;;;;;;;10.52;5.40;;;18.60;70.90;;;;;;9184713;19;20010;-67
2022/07/07 02:37:14;;;;;;;9.05;5.43;;;18.70;71.10;;;;;;9183229;19;20022;-67
2022/07/07 02:40:21;;;;;;;11.60;5.65;;;18.60;71.10;;;;;;9182198;19;20460;-67
2022/07/07 02:43:27;;;;;;;12.65;5.38;;;18.60;71.20;;;;;;9182710;19;20538;-67
2022/07/07 02:46:33;;;;;;;8.95;5.85;;;18.60;71.20;;;;;;9184389;19;20364;-67
2022/07/07 02:49:38;;;;;;;12.35;5.43;;;18.60;71.20;;;;;;9182622;19;20018;-68
2022/07/07 02:52:43;;;;;;;6.03;4.47;;;18.60;72.00;;;;;;9182089;19;20823;-67
2022/07/07 02:55:51;;;;;;;9.65;4.82;;;18.60;71.50;;;;;;9180701;19;20018;-68
2022/07/07 02:58:56;;;;;;;8.38;4.63;;;18.60;71.70;;;;;;9180687;19;20029;-68
2022/07/07 03:02:01;;;;;;;4.75;3.47;;;18.60;71.70;;;;;;9182625;19;20013;-68
2022/07/07 03:05:07;;;;;;;6.10;3.75;;;18.50;71.70;;;;;;9182976;19;20019;-67
2022/07/07 03:08:13;;;;;;;8.55;3.72;;;18.50;71.90;;;;;;9182477;19;20022;-68
2022/07/07 03:11:21;;;;;;;6.93;3.65;;;18.50;72.00;;;;;;9184169;19;20014;-67
2022/07/07 03:14:26;;;;;;;3.33;2.95;;;18.50;72.10;;;;;;9181843;19;20574;-68
2022/07/07 03:17:31;;;;;;;4.03;2.55;;;18.50;72.10;;;;;;9177712;19;20417;-67
2022/07/07 03:20:36;;;;;;;5.47;2.35;;;18.40;72.10;;;;;;9181522;19;20010;-67
2022/07/07 03:23:44;;;;;;;2.50;2.30;;;18.40;72.20;;;;;;9179527;19;20074;-67
2022/07/07 03:26:51;;;;;;;6.85;2.45;;;18.40;72.30;;;;;;9182529;19;20022;-67
2022/07/07 03:29:56;;;;;;;4.65;1.98;;;18.40;72.50;;;;;;9180932;19;20007;-66
2022/07/07 03:33:01;;;;;;;4.45;2.53;;;18.40;72.50;;;;;;9182869;19;20415;-67
2022/07/07 03:36:08;;;;;;;3.20;1.70;;;18.40;72.60;;;;;;9178951;19;20361;-67
2022/07/07 03:39:13;;;;;;;2.70;1.60;;;18.30;73.30;;;;;;9180911;19;20018;-66
2022/07/07 03:42:21;;;;;;;4.88;2.10;;;18.30;72.70;;;;;;9182123;19;20018;-67
2022/07/07 03:45:26;;;;;;;3.00;1.30;;;18.30;72.90;;;;;;9180825;19;20011;-67
2022/07/07 03:48:31;;;;;;;2.50;1.73;;;18.30;72.90;;;;;;9180108;19;20028;-67
2022/07/07 03:51:36;;;;;;;3.28;1.65;;;18.20;72.90;;;;;;9179923;19;20355;-67
2022/07/07 03:54:41;;;;;;;5.20;1.65;;;18.30;73.10;;;;;;9180089;19;20029;-66
2022/07/07 03:57:49;;;;;;;5.35;1.90;;;18.30;73.10;;;;;;9179811;19;20030;-66
2022/07/07 04:00:54;;;;;;;3.33;1.85;;;18.20;73.30;;;;;;9179491;19;20338;-67
2022/07/07 04:03:59;;;;;;;2.42;1.60;;;18.20;73.30;;;;;;9181158;19;20022;-67
2022/07/07 04:07:11;;;;;;;2.38;1.67;;;18.20;73.30;;;;;;9180862;19;20021;-67
2022/07/07 04:10:16;;;;;;;3.30;1.52;;;18.20;73.40;;;;;;9180066;19;20018;-67
2022/07/07 04:13:23;;;;;;;3.45;1.70;;;18.20;73.40;;;;;;9178218;19;20018;-68
2022/07/07 04:16:29;;;;;;;3.97;1.80;;;18.20;73.60;;;;;;9175426;19;20019;-67
2022/07/07 04:19:34;;;;;;;2.85;1.80;;;18.10;74.20;;;;;;9179335;19;20015;-67
2022/07/07 04:22:39;;;;;;;4.00;1.95;;;18.10;73.70;;;;;;9178396;19;20015;-67
2022/07/07 04:25:44;;;;;;;3.63;2.00;;;18.20;73.80;;;;;;9180824;19;20018;-67
2022/07/07 04:28:52;;;;;;;6.03;2.15;;;18.20;73.80;;;;;;9178540;19;20014;-68
2022/07/07 04:31:57;;;;;;;5.10;2.60;;;18.20;74.00;;;;;;9179344;19;20653;-68
2022/07/07 04:35:02;;;;;;;5.45;2.22;;;18.10;73.90;;;;;;9178719;19;20010;-68
2022/07/07 04:38:07;;;;;;;10.38;3.47;;;18.10;73.90;;;;;;9179857;19;20019;-68
2022/07/07 04:41:12;;;;;;;4.90;1.98;;;18.10;74.10;;;;;;9180456;19;20728;-67
2022/07/07 04:44:20;;;;;;;7.78;2.58;;;18.10;74.20;;;;;;9178966;19;20577;-67
2022/07/07 04:47:25;;;;;;;10.52;2.65;;;18.10;74.30;;;;;;9178180;19;20018;-66
2022/07/07 04:50:30;;;;;;;4.00;1.77;;;18.10;74.30;;;;;;9177701;19;20033;-67
2022/07/07 04:53:35;;;;;;;7.25;1.70;;;18.10;74.30;;;;;;9177138;19;20018;-67
2022/07/07 04:56:40;;;;;;;8.07;1.80;;;18.10;74.40;;;;;;9177151;19;20015;-66
2022/07/07 04:59:48;;;;;;;3.47;1.30;;;18.10;74.50;;;;;;9179254;19;20115;-66
2022/07/07 05:02:53;;;;;;;6.45;1.92;;;18.00;74.70;;;;;;9179090;19;20025;-67
2022/07/07 05:05:58;;;;;;;5.38;1.20;;;18.00;74.50;;;;;;9174409;19;20022;-68
2022/07/07 05:09:04;;;;;;;2.53;0.85;;;18.00;74.60;;;;;;9179187;19;20022;-67
2022/07/07 05:12:10;;;;;;;4.00;1.00;;;18.00;74.60;;;;;;9179435;19;20025;-66
2022/07/07 05:15:17;;;;;;;7.20;1.42;;;18.00;74.70;;;;;;9178015;19;20018;-66
2022/07/07 05:18:22;;;;;;;3.92;1.20;;;18.00;74.90;;;;;;9173339;19;20456;-66
2022/07/07 05:21:27;;;;;;;9.82;1.70;;;17.90;74.80;;;;;;9178017;19;20023;-66
2022/07/07 05:24:32;;;;;;;5.28;1.30;;;18.00;74.90;;;;;;9186327;19;20018;-66
2022/07/07 05:27:37;;;;;;;8.82;1.10;;;18.00;75.00;;;;;;9188871;19;20007;-66
2022/07/07 05:30:45;;;;;;;3.17;0.95;;;17.90;74.90;;;;;;9188243;19;20014;-65
2022/07/07 05:33:51;;;;;;;8.43;1.45;;;17.90;75.00;;;;;;9189157;19;20493;-66
2022/07/07 05:36:56;;;;;;;8.32;1.50;;;17.90;74.90;;;;;;9186379;19;20018;-66
2022/07/07 05:40:01;;;;;;;8.98;1.30;;;17.80;74.90;;;;;;9187580;19;20042;-66
2022/07/07 05:43:06;;;;;;;5.63;1.55;;;17.80;74.90;;;;;;9183043;19;20015;-66
2022/07/07 05:46:14;;;;;;;5.95;1.35;;;17.80;75.00;;;;;;9186108;19;20011;-67
2022/07/07 05:49:19;;;;;;;3.65;1.10;;;17.80;75.20;;;;;;9188104;19;20015;-66
2022/07/07 05:52:26;;;;;;;7.80;1.58;;;17.80;75.10;;;;;;9185495;19;20007;-68
2022/07/07 05:55:31;;;;;;;5.82;1.05;;;17.80;75.10;;;;;;9185108;19;20022;-68
2022/07/07 05:58:36;;;;;;;5.63;1.30;;;17.80;75.10;;;;;;9187099;19;20078;-68
2022/07/07 06:01:43;;;;;;;4.00;1.10;;;17.70;75.00;;;;;;9185128;19;20488;-67
2022/07/07 06:04:48;;;;;;;5.65;1.10;;;17.70;75.10;;;;;;9183373;19;20412;-68
2022/07/07 06:07:59;;;;;;;6.18;1.20;;;17.70;75.10;;;;;;9185753;19;20399;-67
2022/07/07 06:11:05;;;;;;;4.88;1.23;;;17.60;75.00;;;;;;9179386;19;20007;-67
2022/07/07 06:14:10;;;;;;;7.55;1.17;;;17.60;75.10;;;;;;9182271;19;20447;-67
2022/07/07 06:17:17;;;;;;;11.15;1.10;;;17.60;75.20;;;;;;9180428;19;20090;-68
2022/07/07 06:20:22;;;;;;;7.10;1.33;;;17.70;75.40;;;;;;9185599;19;20018;-67
2022/07/07 06:23:27;;;;;;;8.55;1.10;;;17.70;75.30;;;;;;9185838;19;20018;-67
2022/07/07 06:26:33;;;;;;;12.02;1.55;;;17.70;75.40;;;;;;9186713;19;20014;-66
2022/07/07 06:29:38;;;;;;;10.05;1.20;;;17.70;75.40;;;;;;9186659;19;20011;-69
2022/07/07 06:32:46;;;;;;;9.40;1.42;;;17.70;75.30;;;;;;9186205;19;20014;-65
2022/07/07 06:35:51;;;;;;;8.13;1.60;;;17.70;75.40;;;;;;9182295;19;20011;-67
2022/07/07 06:38:56;;;;;;;6.18;1.27;;;17.70;75.20;;;;;;9184382;19;20509;-67
2022/07/07 06:42:01;;;;;;;11.88;1.65;;;17.70;75.20;;;;;;9183945;19;20018;-67
2022/07/07 06:45:11;;;;;;;10.88;1.52;;;17.70;75.20;;;;;;9181395;19;20039;-68
2022/07/07 06:48:19;;;;;;;15.13;2.47;;;17.70;75.30;;;;;;9182948;19;20022;-68
2022/07/07 06:51:24;;;;;;;11.18;1.90;;;17.80;75.40;;;;;;9179193;19;20025;-66
2022/07/07 06:54:29;;;;;;;10.43;1.58;;;17.80;75.40;;;;;;9178732;19;20086;-70
2022/07/07 06:57:34;;;;;;;17.05;3.15;;;17.90;75.40;;;;;;9182765;19;20047;-67
2022/07/07 07:00:39;;;;;;;9.88;1.90;;;17.90;75.30;;;;;;9182570;19;20022;-68
2022/07/07 07:03:47;;;;;;;8.90;1.52;;;17.90;75.20;;;;;;9183406;19;20014;-68
2022/07/07 07:06:52;;;;;;;12.48;1.85;;;18.00;75.20;;;;;;9184875;19;20006;-67
2022/07/07 07:09:57;;;;;;;12.07;2.30;;;18.00;75.10;;;;;;9184259;19;20017;-67
2022/07/07 07:13:03;;;;;;;15.73;1.85;;;18.00;74.90;;;;;;9182736;19;20352;-68
2022/07/07 07:16:08;;;;;;;9.60;1.92;;;18.00;75.00;;;;;;9179095;19;20014;-67
2022/07/07 07:19:16;;;;;;;11.65;1.98;;;18.10;75.20;;;;;;9182860;19;20026;-67
2022/07/07 07:22:21;;;;;;;11.52;2.45;;;18.20;75.40;;;;;;9182028;19;20015;-69
2022/07/07 07:25:26;;;;;;;10.65;1.42;;;18.20;75.20;;;;;;9183976;19;20022;-68
2022/07/07 07:28:31;;;;;;;7.07;1.35;;;18.40;75.10;;;;;;9182015;19;20051;-68
2022/07/07 07:31:36;;;;;;;9.88;1.88;;;18.40;74.80;;;;;;9184174;19;20029;-67
2022/07/07 07:34:44;;;;;;;8.50;1.27;;;18.50;74.70;;;;;;9182758;19;20022;-68
2022/07/07 07:37:49;;;;;;;10.05;1.63;;;18.50;74.50;;;;;;9183893;19;20018;-71
2022/07/07 07:40:54;;;;;;;8.18;1.85;;;18.60;74.40;;;;;;9184580;19;20415;-69
2022/07/07 07:44:00;;;;;;;4.68;1.52;;;18.60;74.30;;;;;;9183063;19;20027;-68
2022/07/07 07:47:05;;;;;;;9.68;1.63;;;18.60;74.40;;;;;;9181549;19;20093;-68
2022/07/07 07:50:15;;;;;;;10.50;1.25;;;18.70;74.60;;;;;;9182101;19;20033;-68
2022/07/07 07:53:20;;;;;;;8.73;1.38;;;18.80;74.80;;;;;;9183388;19;20081;-66
2022/07/07 07:56:25;;;;;;;4.28;1.08;;;19.00;74.80;;;;;;9181591;19;20484;-66
2022/07/07 07:59:31;;;;;;;3.25;0.82;;;19.10;74.60;;;;;;9182751;19;20011;-66
2022/07/07 08:02:36;;;;;;;5.45;1.27;;;19.30;74.40;;;;;;9181217;19;20026;-66
2022/07/07 08:05:43;;;;;;;4.72;1.10;;;19.50;74.10;;;;;;9179362;19;20015;-68
2022/07/07 08:08:52;;;;;;;3.67;0.93;;;19.70;73.80;;;;;;9180692;19;20010;-71
2022/07/07 08:11:57;;;;;;;6.07;0.98;;;19.90;73.40;;;;;;9183312;19;20105;-70
2022/07/07 08:15:02;;;;;;;4.55;0.88;;;20.00;73.00;;;;;;9181494;19;20011;-69
2022/07/07 08:18:09;;;;;;;6.43;1.08;;;20.10;72.80;;;;;;9178711;19;20482;-69
2022/07/07 08:21:18;;;;;;;2.10;1.10;;;20.20;72.50;;;;;;9183169;19;20014;-69
2022/07/07 08:24:23;;;;;;;3.58;0.70;;;20.20;72.40;;;;;;9182362;19;20003;-69
2022/07/07 08:27:29;;;;;;;3.65;0.95;;;20.20;72.40;;;;;;9180824;19;20022;-72
2022/07/07 08:30:34;;;;;;;9.88;1.38;;;20.20;72.50;;;;;;9180902;19;20023;-70
2022/07/07 08:33:39;;;;;;;4.53;0.80;;;20.30;72.40;;;;;;9182395;19;20018;-68
2022/07/07 08:36:47;;;;;;;2.78;0.60;;;20.40;72.90;;;;;;9180938;19;20049;-66
2022/07/07 08:39:52;;;;;;;4.45;0.70;;;20.50;72.40;;;;;;9181646;19;20018;-65
2022/07/07 08:42:57;;;;;;;2.15;0.70;;;20.50;72.40;;;;;;9181016;19;20373;-66
2022/07/07 08:46:04;;;;;;;5.95;0.60;;;20.50;72.40;;;;;;9180275;19;20048;-66
2022/07/07 08:49:09;;;;;;;1.70;0.52;;;20.60;72.40;;;;;;9179922;19;20015;-65
2022/07/07 08:52:16;;;;;;;4.10;0.50;;;20.50;72.40;;;;;;9180914;19;20025;-64
2022/07/07 08:55:24;;;;;;;5.28;0.75;;;20.50;72.40;;;;;;9179638;19;20019;-64
2022/07/07 08:58:29;;;;;;;3.22;0.95;;;20.50;72.50;;;;;;9181811;19;20010;-64
2022/07/07 09:01:59;;;;;;;4.00;0.77;;;20.50;72.50;;;;;;9190064;19;20564;-65
2022/07/07 09:05:05;;;;;;;4.15;0.95;;;20.50;72.40;;;;;;9186852;19;20387;-64
2022/07/07 09:08:23;;;;;;;2.28;0.80;;;20.40;72.20;;;;;;9188158;19;20018;-64
2022/07/07 09:11:28;;;;;;;2.75;0.95;;;20.40;72.20;;;;;;9187243;19;20392;-64
2022/07/07 09:14:38;;;;;;;6.00;0.82;;;20.40;72.20;;;;;;9188703;19;20014;-65
2022/07/07 09:17:44;;;;;;;3.38;0.70;;;20.40;72.40;;;;;;9181203;19;20011;-65
2022/07/07 09:20:49;;;;;;;1.65;0.50;;;20.40;72.30;;;;;;9186325;19;20464;-64
2022/07/07 09:23:58;;;;;;;3.88;1.00;;;20.50;72.30;;;;;;9187975;19;20021;-65
2022/07/07 09:27:11;;;;;;;4.40;0.70;;;20.50;72.30;;;;;;9187962;19;20022;-65
2022/07/07 09:30:16;;;;;;;3.78;0.90;;;20.50;72.10;;;;;;9187866;19;20014;-65
2022/07/07 09:33:22;;;;;;;6.80;1.10;;;20.60;72.00;;;;;;9186454;19;20021;-66
2022/07/07 09:39:50;;;;;;;2.28;0.85;;;20.70;71.70;;;;;;9184452;19;20014;-65
2022/07/07 09:43:15;;;;;;;2.92;1.08;;;20.70;71.70;;;;;;9188533;19;20022;-73
2022/07/07 09:46:21;;;;;;;8.38;1.23;;;20.80;71.80;;;;;;9187020;19;20017;-71
2022/07/07 09:49:27;;;;;;;3.08;0.60;;;20.90;71.70;;;;;;9188036;19;20018;-70
2022/07/07 09:52:33;;;;;;;4.85;0.90;;;21.00;71.70;;;;;;9187203;19;20021;-69
2022/07/07 09:55:42;;;;;;;5.53;0.70;;;21.10;71.50;;;;;;9187195;19;20022;-68
2022/07/07 09:58:47;;;;;;;2.63;0.90;;;21.20;71.30;;;;;;9185260;19;20014;-69
2022/07/07 10:01:52;;;;;;;9.10;2.33;;;21.30;71.20;;;;;;9188082;19;20015;-69
2022/07/07 10:04:59;;;;;;;2.47;0.70;;;21.40;70.90;;;;;;9186256;19;20011;-69
2022/07/07 10:08:05;;;;;;;5.85;1.50;;;21.50;70.70;;;;;;9187288;19;20357;-67
2022/07/07 10:11:15;;;;;;;5.00;0.77;;;21.50;70.50;;;;;;9183503;19;20015;-66
2022/07/07 10:14:24;;;;;;;2.88;0.85;;;21.50;70.30;;;;;;9187096;19;20329;-68
2022/07/07 10:17:30;;;;;;;3.70;0.63;;;21.50;70.30;;;;;;9181213;19;20014;-64
2022/07/07 10:20:35;;;;;;;4.50;0.57;;;21.60;70.30;;;;;;9187193;19;20026;-68
2022/07/07 10:23:41;;;;;;;4.20;1.25;;;21.60;70.10;;;;;;9185185;19;20357;-66
2022/07/07 10:26:51;;;;;;;4.20;0.85;;;21.60;69.90;;;;;;9184769;19;20019;-65
2022/07/07 10:29:58;;;;;;;4.68;1.10;;;21.60;69.80;;;;;;9187183;19;20019;-67
2022/07/07 10:33:06;;;;;;;5.03;1.05;;;21.60;69.80;;;;;;9184446;19;20019;-67
2022/07/07 10:36:12;;;;;;;3.35;0.68;;;21.60;69.70;;;;;;9185384;19;20017;-66
2022/07/07 10:39:18;;;;;;;2.47;0.75;;;21.50;69.60;;;;;;9185265;19;20007;-65
2022/07/07 10:42:55;;;;;;;2.60;0.70;;;21.50;69.70;;;;;;9179695;19;20776;-65
2022/07/07 10:46:01;;;;;;;4.05;0.90;;;21.50;69.70;;;;;;9181336;19;20022;-67
2022/07/07 10:49:14;;;;;;;3.63;0.75;;;21.40;69.70;;;;;;9184212;19;20041;-68
2022/07/07 10:52:20;;;;;;;5.60;0.60;;;21.40;69.70;;;;;;9184103;19;20930;-65
2022/07/07 10:55:53;;;;;;;2.90;0.90;;;21.30;69.70;;;;;;9183736;19;20021;-68
2022/07/07 10:59:02;;;;;;;5.30;1.00;;;21.30;69.60;;;;;;9182980;19;20014;-65
2022/07/07 11:02:12;;;;;;;4.07;0.77;;;21.30;69.60;;;;;;9184578;19;20010;-66
2022/07/07 11:05:34;;;;;;;3.88;1.02;;;21.30;69.80;;;;;;9182254;19;20689;-67
2022/07/07 11:08:40;;;;;;;3.47;0.97;;;21.20;69.80;;;;;;9183534;19;20014;-67
2022/07/07 11:11:45;;;;;;;4.07;1.00;;;21.20;69.80;;;;;;9183484;19;20026;-64
2022/07/07 11:15:34;;;;;;;4.55;1.10;;;21.10;69.90;;;;;;9183692;19;20368;-67
2022/07/07 11:18:39;;;;;;;4.85;1.23;;;21.10;70.00;;;;;;9177467;19;20014;-66
2022/07/07 11:21:46;;;;;;;6.85;1.00;;;21.00;70.10;;;;;;9181146;19;20018;-66
2022/07/07 11:24:52;;;;;;;3.33;1.17;;;20.90;70.10;;;;;;9182437;19;20479;-65
2022/07/07 11:27:59;;;;;;;3.50;1.10;;;20.90;70.20;;;;;;9183256;19;20494;-65
2022/07/07 11:31:09;;;;;;;3.00;0.90;;;20.80;70.20;;;;;;9184254;19;20014;-67
2022/07/07 11:34:14;;;;;;;4.13;1.20;;;20.80;70.40;;;;;;9182985;19;20468;-68
2022/07/07 11:37:21;;;;;;;1.98;0.90;;;20.80;70.40;;;;;;9183829;19;20014;-64
2022/07/07 11:40:27;;;;;;;3.33;1.05;;;20.70;70.50;;;;;;9180767;19;20025;-65
2022/07/07 11:43:32;;;;;;;5.90;1.27;;;20.70;70.50;;;;;;9184050;19;20018;-66
2022/07/07 11:46:41;;;;;;;7.00;1.10;;;20.80;70.60;;;;;;9181794;19;20377;-66
2022/07/07 11:49:52;;;;;;;4.50;1.35;;;20.80;70.50;;;;;;9181294;19;20010;-69
2022/07/07 11:53:00;;;;;;;2.33;0.80;;;20.90;70.50;;;;;;9181706;19;20117;-67
2022/07/07 11:56:11;;;;;;;6.65;1.20;;;20.90;70.50;;;;;;9182738;19;20483;-65
2022/07/07 11:59:16;;;;;;;6.68;0.90;;;20.90;70.30;;;;;;9179354;19;20022;-68
2022/07/07 12:02:27;;;;;;;6.35;1.27;;;20.80;70.10;;;;;;9181749;19;20337;-67
2022/07/07 12:05:34;;;;;;;4.20;1.27;;;20.80;70.10;;;;;;9180355;19;20021;-65
2022/07/07 12:08:39;;;;;;;3.25;1.08;;;20.70;70.00;;;;;;9180197;19;20015;-66
2022/07/07 12:11:45;;;;;;;3.85;1.10;;;20.60;69.90;;;;;;9180010;19;20352;-66
2022/07/07 12:14:50;;;;;;;5.30;1.13;;;20.60;69.80;;;;;;9178100;19;20483;-65
2022/07/07 12:17:59;;;;;;;8.52;2.20;;;20.50;69.70;;;;;;9172778;19;20086;-67
2022/07/07 12:21:06;;;;;;;9.48;1.40;;;20.40;70.00;;;;;;9178077;19;20033;-67
2022/07/07 12:24:14;;;;;;;12.25;1.70;;;20.20;70.00;;;;;;9179677;19;20033;-68
2022/07/07 12:27:19;;;;;;;7.28;1.40;;;20.10;70.30;;;;;;9179233;19;20022;-66
2022/07/07 12:30:26;;;;;;;6.43;1.45;;;20.10;70.40;;;;;;9182570;19;20086;-66
2022/07/07 12:33:35;;;;;;;9.18;1.77;;;20.00;70.50;;;;;;9178044;19;20014;-66
2022/07/07 12:36:42;;;;;;;9.80;1.85;;;20.00;70.60;;;;;;9179875;19;20007;-65
2022/07/07 12:39:55;;;;;;;5.82;1.30;;;19.90;70.70;;;;;;9179671;19;20048;-66
2022/07/07 12:43:07;;;;;;;9.68;1.70;;;19.90;70.60;;;;;;9181369;19;20025;-68
2022/07/07 12:46:13;;;;;;;10.18;2.10;;;19.80;70.60;;;;;;9179838;19;20474;-64
2022/07/07 12:49:21;;;;;;;10.80;2.03;;;19.80;70.50;;;;;;9180323;19;20022;-66
2022/07/07 12:52:26;;;;;;;5.55;1.33;;;19.80;70.40;;;;;;9179870;19;20011;-65
2022/07/07 12:55:38;;;;;;;11.65;1.90;;;19.80;70.30;;;;;;9182119;19;20013;-65
2022/07/07 12:58:46;;;;;;;6.60;1.88;;;19.70;70.10;;;;;;9179885;19;20019;-66
2022/07/07 13:01:53;;;;;;;11.82;2.50;;;19.70;69.90;;;;;;9179877;19;20362;-67
2022/07/07 13:05:01;;;;;;;10.85;2.22;;;19.60;69.80;;;;;;9178480;19;20078;-65
2022/07/07 13:08:06;;;;;;;17.63;2.13;;;19.60;69.80;;;;;;9181136;19;20022;-65
2022/07/07 13:11:12;;;;;;;10.77;2.65;;;19.60;69.80;;;;;;9180021;19;20021;-66
2022/07/07 13:14:17;;;;;;;9.90;1.80;;;19.60;69.70;;;;;;9177960;19;20025;-67
2022/07/07 13:17:31;;;;;;;23.37;3.07;;;19.60;69.60;;;;;;9174989;19;20015;-65
2022/07/07 13:20:38;;;;;;;12.98;2.30;;;19.70;70.20;;;;;;9177414;19;20026;-64
2022/07/07 13:23:43;;;;;;;12.63;2.20;;;19.70;69.30;;;;;;9180167;19;20015;-66
2022/07/07 13:26:48;;;;;;;9.98;1.90;;;19.80;69.20;;;;;;9178349;19;20015;-63
2022/07/07 13:29:53;;;;;;;8.02;2.45;;;19.80;69.00;;;;;;9178622;19;20494;-66
2022/07/07 13:32:59;;;;;;;10.65;1.83;;;19.90;68.80;;;;;;9177823;19;20475;-68
2022/07/07 13:36:07;;;;;;;18.75;2.58;;;19.90;68.50;;;;;;9177761;19;20026;-66
2022/07/07 13:39:12;;;;;;;17.00;2.33;;;20.00;68.30;;;;;;9172081;19;20017;-66
2022/07/07 13:42:17;;;;;;;12.60;2.05;;;20.00;68.20;;;;;;9173357;19;20018;-69
2022/07/07 13:45:22;;;;;;;11.82;1.88;;;20.00;68.00;;;;;;9179256;19;20029;-66
2022/07/07 13:48:28;;;;;;;19.75;2.88;;;20.00;67.80;;;;;;9183090;19;20380;-67
2022/07/07 13:51:36;;;;;;;13.02;2.13;;;20.00;67.60;;;;;;9185419;19;20007;-65
2022/07/07 13:54:43;;;;;;;8.57;1.67;;;20.10;67.30;;;;;;9184134;19;20038;-69
2022/07/07 13:57:49;;;;;;;10.90;2.33;;;20.10;67.20;;;;;;9184506;19;20471;-67
2022/07/07 14:00:55;;;;;;;17.27;2.08;;;20.10;67.10;;;;;;9178336;19;20018;-68
2022/07/07 14:04:00;;;;;;;12.50;2.55;;;20.10;67.00;;;;;;9183814;19;20019;-67
2022/07/07 14:07:08;;;;;;;13.43;1.95;;;20.10;66.90;;;;;;9181408;19;20022;-67
2022/07/07 14:10:13;;;;;;;10.63;1.60;;;20.10;66.70;;;;;;9178750;19;20488;-66
2022/07/07 14:13:18;;;;;;;11.25;1.70;;;20.10;67.20;;;;;;9182516;19;20018;-68
2022/07/07 14:16:23;;;;;;;11.98;1.83;;;20.10;66.40;;;;;;9179077;19;20368;-65
2022/07/07 14:19:29;;;;;;;11.45;1.88;;;20.10;66.20;;;;;;9181093;19;20029;-65
2022/07/07 14:22:37;;;;;;;11.52;1.90;;;20.10;66.20;;;;;;9179125;19;20006;-65
2022/07/07 14:25:42;;;;;;;9.40;2.13;;;20.10;66.10;;;;;;9179930;19;20033;-66
2022/07/07 14:28:47;;;;;;;12.35;2.33;;;20.10;66.00;;;;;;9180286;19;20026;-69
2022/07/07 14:31:52;;;;;;;8.60;1.77;;;20.10;65.80;;;;;;9180803;19;20019;-69
2022/07/07 14:35:07;;;;;;;13.23;2.47;;;20.00;65.70;;;;;;9179667;19;20761;-65
2022/07/07 14:38:15;;;;;;;16.75;2.47;;;20.00;65.70;;;;;;9178061;19;20025;-67
2022/07/07 14:41:20;;;;;;;12.88;2.40;;;20.00;65.60;;;;;;9177763;19;20116;-67
2022/07/07 14:44:25;;;;;;;15.40;2.13;;;20.00;65.70;;;;;;9179448;19;20479;-67
2022/07/07 14:47:30;;;;;;;10.52;2.05;;;20.10;65.60;;;;;;9179332;19;20014;-66
2022/07/07 14:50:35;;;;;;;11.93;2.15;;;20.10;65.50;;;;;;9180554;19;20589;-68
2022/07/07 14:53:43;;;;;;;18.48;2.83;;;20.10;65.30;;;;;;9178405;19;20022;-67
2022/07/07 14:56:48;;;;;;;14.55;2.58;;;20.10;65.00;;;;;;9176265;19;20021;-67
2022/07/07 14:59:53;;;;;;;11.98;2.13;;;20.10;65.00;;;;;;9177830;19;20027;-66
2022/07/07 15:02:58;;;;;;;20.70;2.80;;;20.20;64.90;;;;;;9177730;19;20029;-67
2022/07/07 15:06:04;;;;;;;11.23;2.50;;;20.20;64.80;;;;;;9175303;19;20014;-68
2022/07/07 15:09:11;;;;;;;8.88;1.48;;;20.20;64.80;;;;;;9177068;19;20018;-66
2022/07/07 15:12:16;;;;;;;8.15;1.58;;;20.10;64.60;;;;;;9177283;19;20018;-65
2022/07/07 15:15:21;;;;;;;11.60;3.28;;;20.10;64.60;;;;;;9176395;19;20029;-65
2022/07/07 15:18:27;;;;;;;11.07;2.20;;;20.10;64.50;;;;;;9175251;19;20374;-65
2022/07/07 15:21:33;;;;;;;12.38;1.92;;;20.10;64.40;;;;;;9176756;19;20052;-65
2022/07/07 15:24:41;;;;;;;15.27;2.05;;;20.10;64.40;;;;;;9177677;19;20021;-63
2022/07/07 15:27:47;;;;;;;9.75;1.85;;;20.10;64.20;;;;;;9179924;19;20014;-66
2022/07/07 15:30:52;;;;;;;12.70;2.28;;;20.10;64.20;;;;;;9178008;19;20594;-65
2022/07/07 15:33:57;;;;;;;12.73;1.75;;;20.00;64.00;;;;;;9177363;19;20021;-65
2022/07/07 15:37:02;;;;;;;7.95;1.60;;;20.00;63.90;;;;;;9175617;19;20511;-66
2022/07/07 15:40:11;;;;;;;9.15;2.10;;;20.00;63.80;;;;;;9177983;19;20018;-69
2022/07/07 15:43:16;;;;;;;10.40;2.75;;;20.00;63.60;;;;;;9177455;19;20018;-70
2022/07/07 15:46:22;;;;;;;8.07;1.60;;;19.90;63.80;;;;;;9176867;19;20022;-66
2022/07/07 15:49:27;;;;;;;8.50;2.08;;;19.90;63.70;;;;;;9178197;19;20011;-66
2022/07/07 15:52:32;;;;;;;7.43;1.52;;;19.90;63.70;;;;;;9177715;19;20018;-67
2022/07/07 15:55:40;;;;;;;14.93;1.90;;;19.90;63.70;;;;;;9176955;19;20026;-65
2022/07/07 15:58:46;;;;;;;12.63;1.40;;;19.90;63.60;;;;;;9175981;19;20679;-65
2022/07/07 16:01:51;;;;;;;7.95;1.50;;;19.80;63.60;;;;;;9176136;19;20572;-66
2022/07/07 16:04:56;;;;;;;6.28;1.55;;;19.80;64.10;;;;;;9177987;19;20669;-64
2022/07/07 16:08:01;;;;;;;7.90;1.67;;;19.80;63.40;;;;;;9173738;19;20034;-65
2022/07/07 16:11:08;;;;;;;14.52;1.88;;;19.80;63.40;;;;;;9179131;19;20022;-65